createdAt,value
2024-05-09T00:00:42.700Z,99.90
2024-05-09T00:03:11.871Z,99.90
2024-05-09T00:06:08.294Z,99.90
2024-05-09T00:08:44.002Z,99.90
2024-05-09T00:11:15.270Z,99.90
2024-05-09T00:13:42.868Z,99.90
2024-05-09T00:16:10.263Z,99.90
2024-05-09T00:18:37.688Z,99.90
2024-05-09T00:21:07.105Z,99.90
2024-05-09T00:23:34.801Z,99.90
2024-05-09T00:26:02.383Z,99.90
2024-05-09T00:28:29.798Z,99.90
2024-05-09T00:30:57.141Z,99.90
2024-05-09T00:33:24.822Z,99.90
2024-05-09T00:35:52.626Z,99.90
2024-05-09T00:38:21.253Z,99.90
2024-05-09T00:40:48.857Z,99.90
2024-05-09T00:43:18.758Z,99.90
2024-05-09T00:45:47.270Z,99.90
2024-05-09T00:48:19.806Z,99.90
2024-05-09T00:50:49.808Z,99.90
2024-05-09T00:53:19.125Z,99.90
2024-05-09T00:55:47.848Z,99.90
2024-05-09T00:58:18.420Z,99.90
2024-05-09T01:00:46.388Z,99.90
2024-05-09T01:03:14.571Z,99.90
2024-05-09T01:05:43.633Z,99.90
2024-05-09T01:08:12.563Z,99.90
2024-05-09T01:10:43.892Z,99.90
2024-05-09T01:13:12.991Z,99.90
2024-05-09T01:15:40.491Z,99.90
2024-05-09T01:18:11.648Z,99.90
2024-05-09T01:20:43.229Z,99.90
2024-05-09T01:23:15.033Z,99.90
2024-05-09T01:25:45.025Z,99.90
2024-05-09T01:28:12.874Z,99.90
2024-05-09T01:30:40.436Z,99.90
2024-05-09T01:33:12.430Z,99.90
2024-05-09T01:35:42.078Z,99.90
2024-05-09T01:38:13.214Z,99.90
2024-05-09T01:40:41.647Z,99.90
2024-05-09T01:43:10.289Z,99.90
2024-05-09T01:45:42.345Z,99.90
2024-05-09T01:48:11.142Z,99.90
2024-05-09T01:50:42.014Z,99.90
2024-05-09T01:53:13.161Z,99.90
2024-05-09T01:55:41.306Z,99.90
2024-05-09T01:58:09.608Z,99.90
2024-05-09T02:00:41.144Z,99.90
2024-05-09T02:03:15.074Z,99.90
2024-05-09T02:05:46.602Z,99.90
2024-05-09T02:08:19.447Z,99.90
2024-05-09T02:10:48.466Z,99.90
2024-05-09T02:13:16.634Z,99.90
2024-05-09T02:15:44.385Z,99.90
2024-05-09T02:18:12.882Z,99.90
2024-05-09T02:20:41.892Z,99.90
2024-05-09T02:23:10.224Z,99.90
2024-05-09T02:25:37.717Z,99.90
2024-05-09T02:28:05.680Z,99.90
2024-05-09T02:30:39.511Z,99.90
2024-05-09T02:33:12.381Z,99.90
2024-05-09T02:35:43.639Z,99.90
2024-05-09T02:38:12.324Z,99.90
2024-05-09T02:40:40.595Z,99.90
2024-05-09T02:43:10.202Z,99.90
2024-05-09T02:45:39.717Z,99.90
2024-05-09T02:48:11.370Z,99.90
2024-05-09T02:50:42.354Z,99.90
2024-05-09T02:53:11.647Z,99.90
2024-05-09T02:55:39.353Z,99.90
2024-05-09T02:58:10.980Z,99.90
2024-05-09T03:00:41.602Z,99.90
2024-05-09T03:03:13.390Z,99.90
2024-05-09T03:05:45.995Z,99.90
2024-05-09T03:08:14.008Z,99.90
2024-05-09T03:10:41.814Z,99.90
2024-05-09T03:13:14.013Z,99.90
2024-05-09T03:15:43.200Z,99.90
2024-05-09T03:18:11.837Z,99.90
2024-05-09T03:20:40.196Z,99.90
2024-05-09T03:23:09.572Z,99.90
2024-05-09T03:25:38.799Z,99.90
2024-05-09T03:28:07.506Z,99.90
2024-05-09T03:30:40.375Z,99.90
2024-05-09T03:33:18.798Z,99.90
2024-05-09T03:35:48.235Z,99.90
2024-05-09T03:38:16.302Z,99.90
2024-05-09T03:40:49.068Z,99.90
2024-05-09T03:43:17.972Z,99.90
2024-05-09T03:45:46.551Z,99.90
2024-05-09T03:48:14.207Z,99.90
2024-05-09T03:50:41.977Z,99.90
2024-05-09T03:53:13.709Z,99.90
2024-05-09T03:55:41.590Z,99.90
2024-05-09T03:58:09.263Z,99.90
2024-05-09T04:00:39.355Z,99.90
2024-05-09T04:03:10.798Z,99.90
2024-05-09T04:05:42.095Z,99.90
2024-05-09T04:08:11.204Z,99.90
2024-05-09T04:10:39.019Z,99.90
2024-05-09T04:13:06.713Z,99.90
2024-05-09T04:15:34.140Z,99.90
2024-05-09T04:18:02.474Z,99.90
2024-05-09T04:20:38.094Z,99.90
2024-05-09T04:23:12.241Z,99.90
2024-05-09T04:25:45.074Z,99.90
2024-05-09T04:28:13.759Z,99.90
2024-05-09T04:30:42.144Z,99.90
2024-05-09T04:33:12.445Z,99.90
2024-05-09T04:35:42.757Z,99.90
2024-05-09T04:38:10.898Z,99.90
2024-05-09T04:40:38.659Z,99.90
2024-05-09T04:43:07.452Z,99.90
2024-05-09T04:45:35.643Z,99.90
2024-05-09T04:48:03.897Z,99.90
2024-05-09T04:50:37.340Z,99.90
2024-05-09T04:53:09.034Z,99.90
2024-05-09T04:56:08.225Z,99.90
2024-05-09T04:58:53.412Z,99.90
2024-05-09T05:01:25.871Z,99.90
2024-05-09T05:04:19.351Z,99.90
2024-05-09T05:06:50.698Z,99.90
2024-05-09T05:09:20.441Z,99.90
2024-05-09T05:11:50.254Z,99.90
2024-05-09T05:14:17.881Z,99.90
2024-05-09T05:16:45.475Z,99.90
2024-05-09T05:19:39.534Z,99.90
2024-05-09T05:22:07.058Z,99.90
2024-05-09T05:24:34.825Z,99.90
2024-05-09T05:27:17.481Z,99.90
2024-05-09T05:29:46.813Z,99.90
2024-05-09T05:32:14.602Z,99.90
2024-05-09T05:34:42.150Z,99.90
2024-05-09T05:37:09.598Z,99.90
2024-05-09T05:39:40.888Z,99.90
2024-05-09T05:42:08.588Z,99.90
2024-05-09T05:47:55.081Z,99.90
2024-05-09T05:50:32.658Z,99.90
2024-05-09T05:53:05.235Z,99.90
2024-05-09T05:55:32.795Z,99.90
2024-05-09T05:58:01.605Z,99.90
2024-05-09T06:00:38.350Z,99.90
2024-05-09T06:03:32.364Z,99.90
2024-05-09T06:06:04.235Z,99.90
2024-05-09T06:08:34.804Z,99.90
2024-05-09T06:11:03.487Z,99.90
2024-05-09T06:13:31.021Z,99.90
2024-05-09T06:16:00.773Z,99.90
2024-05-09T06:18:28.493Z,99.90
2024-05-09T06:21:21.121Z,99.90
2024-05-09T06:23:49.987Z,99.90
2024-05-09T06:26:29.816Z,99.90
2024-05-09T06:28:57.484Z,99.90
2024-05-09T06:31:24.888Z,99.90
2024-05-09T06:33:52.793Z,99.90
2024-05-09T06:36:20.321Z,99.90
2024-05-09T06:38:48.372Z,99.90
2024-05-09T06:41:15.878Z,99.90
2024-05-09T06:43:43.378Z,99.90
2024-05-09T06:46:11.748Z,99.90
2024-05-09T06:49:31.705Z,99.90
2024-05-09T06:51:59.388Z,99.90
2024-05-09T06:54:26.913Z,99.90
2024-05-09T06:56:54.358Z,99.90
2024-05-09T06:59:21.797Z,99.90
2024-05-09T07:01:49.365Z,99.90
2024-05-09T07:04:19.463Z,99.90
2024-05-09T07:06:47.177Z,99.90
2024-05-09T07:09:17.956Z,99.90
2024-05-09T07:14:27.947Z,99.90
2024-05-09T07:16:55.599Z,99.90
2024-05-09T07:19:23.117Z,99.90
2024-05-09T07:21:51.502Z,99.90
2024-05-09T07:24:19.045Z,99.90
2024-05-09T07:26:46.686Z,99.90
2024-05-09T07:29:14.934Z,99.90
2024-05-09T07:31:42.380Z,99.90
2024-05-09T07:34:12.018Z,99.90
2024-05-09T07:40:05.844Z,99.90
2024-05-09T07:42:37.285Z,99.90
2024-05-09T07:45:21.504Z,99.90
2024-05-09T07:52:32.473Z,99.90
2024-05-09T07:53:39.841Z,99.90
2024-05-09T07:56:13.207Z,99.90
2024-05-09T07:58:44.030Z,99.90
2024-05-09T08:01:11.605Z,99.90
2024-05-09T08:03:40.054Z,99.90
2024-05-09T08:06:07.750Z,99.90
2024-05-09T08:08:35.160Z,99.90
2024-05-09T08:11:03.048Z,99.90
2024-05-09T08:13:31.083Z,99.90
2024-05-09T08:15:58.874Z,99.90
2024-05-09T08:18:26.871Z,99.90
2024-05-09T08:20:54.475Z,99.90
2024-05-09T08:23:23.734Z,99.90
2024-05-09T08:25:54.939Z,99.90
2024-05-09T08:28:26.187Z,99.90
2024-05-09T08:30:53.851Z,99.90
2024-05-09T08:33:37.487Z,99.80
2024-05-09T08:36:05.432Z,99.70
2024-05-09T08:38:32.873Z,99.80
2024-05-09T08:41:03.466Z,99.40
2024-05-09T08:43:31.266Z,98.00
2024-05-09T08:46:36.735Z,98.10
2024-05-09T08:49:04.560Z,98.20
2024-05-09T08:52:09.645Z,98.10
2024-05-09T08:54:37.284Z,98.60
2024-05-09T08:57:06.260Z,98.70
2024-05-09T09:09:40.132Z,97.20
2024-05-09T09:12:10.791Z,96.60
2024-05-09T09:14:40.819Z,97.00
2024-05-09T09:17:18.114Z,96.90
2024-05-09T09:19:53.990Z,97.50
2024-05-09T09:22:31.039Z,97.80
2024-05-09T09:24:58.563Z,97.30
2024-05-09T09:27:28.693Z,96.80
2024-05-09T09:30:33.993Z,95.60
2024-05-09T09:33:32.894Z,95.80
2024-05-09T09:36:03.014Z,96.10
2024-05-09T09:38:32.333Z,96.20
2024-05-09T09:41:03.768Z,96.70
2024-05-09T09:43:33.103Z,96.00
2024-05-09T09:46:02.478Z,96.40
2024-05-09T09:48:32.241Z,96.70
2024-05-09T09:51:03.479Z,97.00
2024-05-09T09:53:33.737Z,96.10
2024-05-09T09:56:03.399Z,96.40
2024-05-09T09:58:34.902Z,95.80
2024-05-09T10:01:02.587Z,95.50
2024-05-09T10:03:31.019Z,95.40
2024-05-09T10:06:01.273Z,95.50
2024-05-09T10:08:29.938Z,95.80
2024-05-09T10:10:57.552Z,94.90
2024-05-09T10:13:35.884Z,95.40
2024-05-09T10:16:11.502Z,95.90
2024-05-09T10:18:40.318Z,95.50
2024-05-09T10:21:20.676Z,96.80
2024-05-09T10:24:03.384Z,96.80
2024-05-09T10:26:52.079Z,96.70
2024-05-09T10:29:19.963Z,97.30
2024-05-09T10:31:48.117Z,96.80
2024-05-09T10:34:33.448Z,97.90
2024-05-09T10:37:04.702Z,99.30
2024-05-09T10:39:39.125Z,99.30
2024-05-09T10:42:22.255Z,99.20
2024-05-09T10:44:49.822Z,98.20
2024-05-09T10:47:17.890Z,98.00
2024-05-09T10:49:49.521Z,98.00
2024-05-09T10:52:21.166Z,98.40
2024-05-09T10:54:53.217Z,98.30
2024-05-09T10:57:27.310Z,97.80
2024-05-09T10:59:54.843Z,97.80
2024-05-09T11:02:22.960Z,98.30
2024-05-09T11:04:50.727Z,98.50
2024-05-09T11:07:21.532Z,98.00
2024-05-09T11:09:49.379Z,97.80
2024-05-09T11:12:23.598Z,96.60
2024-05-09T11:14:53.306Z,96.80
2024-05-09T11:17:20.951Z,96.90
2024-05-09T11:19:51.250Z,96.80
2024-05-09T11:22:18.871Z,97.30
2024-05-09T11:24:46.756Z,98.50
2024-05-09T11:27:14.409Z,98.80
2024-05-09T11:29:44.617Z,98.50
2024-05-09T11:32:13.650Z,98.50
2024-05-09T11:35:19.266Z,97.60
2024-05-09T11:37:47.137Z,96.60
2024-05-09T11:40:21.368Z,97.40
2024-05-09T11:42:53.599Z,98.40
2024-05-09T11:45:22.289Z,97.90
2024-05-09T11:47:50.317Z,98.10
2024-05-09T11:50:26.811Z,97.90
2024-05-09T11:52:57.672Z,97.70
2024-05-09T11:55:28.134Z,97.20
2024-05-09T11:57:57.895Z,97.60
2024-05-09T12:00:33.867Z,98.60
2024-05-09T12:03:05.842Z,98.80
2024-05-09T12:05:34.474Z,98.80
2024-05-09T12:08:02.670Z,99.50
2024-05-09T12:10:36.246Z,99.90
2024-05-09T12:13:06.504Z,99.20
2024-05-09T12:15:59.942Z,98.80
2024-05-09T12:18:27.473Z,99.10
2024-05-09T12:20:56.434Z,99.00
2024-05-09T12:23:23.955Z,99.00
2024-05-09T12:25:51.526Z,99.50
2024-05-09T12:28:20.267Z,99.60
2024-05-09T12:30:49.834Z,99.90
2024-05-09T12:33:20.979Z,99.90
2024-05-09T12:35:50.850Z,99.90
2024-05-09T12:38:22.727Z,99.60
2024-05-09T12:40:50.761Z,99.70
2024-05-09T12:43:18.436Z,99.60
2024-05-09T12:46:15.799Z,99.90
2024-05-09T12:48:43.694Z,99.20
2024-05-09T12:51:11.246Z,99.00
2024-05-09T12:53:38.725Z,99.30
2024-05-09T12:56:09.178Z,99.40
2024-05-09T12:58:37.439Z,99.30
2024-05-09T13:01:14.659Z,99.80
2024-05-09T13:03:42.966Z,99.70
2024-05-09T13:06:10.816Z,99.40
2024-05-09T13:08:45.034Z,99.60
2024-05-09T13:11:13.178Z,99.50
2024-05-09T13:13:41.607Z,99.90
2024-05-09T13:16:09.332Z,99.90
2024-05-09T13:18:36.907Z,99.90
2024-05-09T13:21:04.651Z,99.90
2024-05-09T13:23:32.983Z,99.90
2024-05-09T13:26:00.636Z,99.90
2024-05-09T13:28:28.303Z,99.90
2024-05-09T13:31:05.368Z,99.90
2024-05-09T13:33:33.463Z,99.30
2024-05-09T13:36:01.320Z,99.90
2024-05-09T13:38:39.081Z,99.50
2024-05-09T13:41:06.588Z,99.80
2024-05-09T13:43:34.440Z,99.20
2024-05-09T13:46:02.272Z,99.40
2024-05-09T13:48:30.232Z,99.00
2024-05-09T13:50:58.308Z,98.40
2024-05-09T13:53:25.786Z,98.80
2024-05-09T13:55:53.415Z,98.60
2024-05-09T13:58:22.121Z,98.80
2024-05-09T14:00:49.867Z,99.10
2024-05-09T14:03:19.736Z,98.90
2024-05-09T14:05:50.206Z,98.50
2024-05-09T14:08:22.705Z,98.00
2024-05-09T14:10:59.486Z,98.30
2024-05-09T14:13:26.903Z,99.10
2024-05-09T14:15:54.561Z,98.70
2024-05-09T14:18:23.231Z,99.00
2024-05-09T14:20:51.215Z,99.00
2024-05-09T14:23:20.182Z,98.80
2024-05-09T14:25:51.291Z,98.40
2024-05-09T14:28:21.986Z,98.20
2024-05-09T14:30:49.624Z,98.60
2024-05-09T14:33:23.506Z,98.60
2024-05-09T14:35:51.289Z,98.10
2024-05-09T14:38:18.935Z,98.50
2024-05-09T14:40:46.451Z,98.20
2024-05-09T14:43:42.199Z,98.30
2024-05-09T14:46:10.183Z,98.70
2024-05-09T14:48:42.585Z,98.80
2024-05-09T14:51:10.185Z,99.10
2024-05-09T14:53:37.580Z,98.90
2024-05-09T14:56:05.519Z,99.20
2024-05-09T14:58:33.068Z,98.50
2024-05-09T15:01:00.656Z,98.20
2024-05-09T15:03:28.259Z,98.30
2024-05-09T15:05:55.790Z,98.30
2024-05-09T15:08:23.408Z,98.30
2024-05-09T15:10:51.132Z,98.20
2024-05-09T15:13:50.581Z,98.40
2024-05-09T15:16:18.836Z,98.80
2024-05-09T15:18:46.485Z,98.60
2024-05-09T15:21:20.016Z,98.90
2024-05-09T15:23:49.583Z,99.00
2024-05-09T15:26:18.738Z,99.10
2024-05-09T15:28:48.905Z,98.90
2024-05-09T15:31:16.636Z,99.20
2024-05-09T15:33:44.252Z,99.10
2024-05-09T15:36:11.822Z,99.10
2024-05-09T15:38:39.611Z,99.30
2024-05-09T15:41:07.369Z,99.40
2024-05-09T15:43:37.297Z,99.50
2024-05-09T15:46:05.135Z,99.70
2024-05-09T15:48:32.892Z,99.50
2024-05-09T15:51:01.080Z,99.50
2024-05-09T15:53:29.256Z,99.90
2024-05-09T15:55:56.961Z,99.80
2024-05-09T15:58:28.199Z,99.70
2024-05-09T16:00:55.993Z,99.90
2024-05-09T16:03:24.421Z,99.80
2024-05-09T16:05:52.343Z,99.60
2024-05-09T16:08:19.865Z,99.40
2024-05-09T16:10:47.810Z,99.60
2024-05-09T16:13:16.666Z,99.50
2024-05-09T16:15:45.166Z,99.80
2024-05-09T16:18:13.053Z,99.90
2024-05-09T16:20:45.442Z,99.90
2024-05-09T16:23:25.208Z,99.90
2024-05-09T16:26:00.258Z,99.90
2024-05-09T16:28:27.743Z,99.90
2024-05-09T16:30:55.579Z,99.90
2024-05-09T16:33:25.632Z,99.90
2024-05-09T16:35:53.271Z,99.90
2024-05-09T16:38:26.134Z,99.90
2024-05-09T16:40:58.965Z,99.90
2024-05-09T16:43:29.439Z,99.90
2024-05-09T16:46:05.385Z,99.90
2024-05-09T16:48:33.249Z,99.90
2024-05-09T16:51:00.837Z,99.90
2024-05-09T16:53:28.309Z,99.90
2024-05-09T16:55:55.663Z,99.90
2024-05-09T16:58:23.503Z,99.90
2024-05-09T17:00:51.269Z,99.90
2024-05-09T17:03:19.194Z,99.90
2024-05-09T17:05:48.302Z,99.90
2024-05-09T17:08:20.059Z,99.90
2024-05-09T17:10:51.312Z,99.90
2024-05-09T17:13:19.542Z,99.90
2024-05-09T17:15:47.893Z,99.90
2024-05-09T17:18:16.342Z,99.90
2024-05-09T17:20:43.770Z,99.90
2024-05-09T17:23:14.495Z,99.90
2024-05-09T17:25:42.793Z,99.90
2024-05-09T17:28:11.003Z,99.90
2024-05-09T17:30:40.752Z,99.90
2024-05-09T17:33:10.924Z,99.90
2024-05-09T17:35:39.468Z,99.90
2024-05-09T17:38:06.997Z,99.90
2024-05-09T17:40:36.972Z,99.90
2024-05-09T17:43:08.623Z,99.90
2024-05-09T17:45:39.708Z,99.90
2024-05-09T17:48:10.244Z,99.90
2024-05-09T17:50:39.147Z,99.90
2024-05-09T17:53:06.992Z,99.90
2024-05-09T17:55:34.997Z,99.90
2024-05-09T17:58:03.029Z,99.90
2024-05-09T18:00:37.881Z,99.90
2024-05-09T18:03:10.909Z,99.90
2024-05-09T18:05:39.302Z,99.90
2024-05-09T18:08:07.900Z,99.90
2024-05-09T18:10:38.643Z,99.90
2024-05-09T18:13:12.355Z,99.90
2024-05-09T18:15:40.456Z,99.90
2024-05-09T18:18:09.208Z,99.90
2024-05-09T18:20:42.843Z,99.90
2024-05-09T18:23:16.330Z,99.90
2024-05-09T18:25:45.602Z,99.90
2024-05-09T18:28:13.597Z,99.90
2024-05-09T18:30:41.612Z,99.90
2024-05-09T18:33:10.377Z,99.90
2024-05-09T18:35:38.353Z,99.90
2024-05-09T18:38:06.032Z,99.90
2024-05-09T18:40:36.711Z,99.90
2024-05-09T18:43:07.992Z,99.90
2024-05-09T18:45:38.139Z,99.90
2024-05-09T18:48:07.936Z,99.90
2024-05-09T18:50:39.676Z,99.90
2024-05-09T18:53:10.846Z,99.90
2024-05-09T18:55:39.145Z,99.90
2024-05-09T18:58:07.463Z,99.90
2024-05-09T19:00:38.453Z,99.90
2024-05-09T19:03:13.500Z,99.90
2024-05-09T19:05:43.894Z,99.90
2024-05-09T19:08:13.006Z,99.90
2024-05-09T19:10:40.886Z,99.90
2024-05-09T19:13:12.042Z,99.90
2024-05-09T19:15:42.885Z,99.90
2024-05-09T19:18:12.904Z,99.90
2024-05-09T19:20:41.175Z,99.90
2024-05-09T19:23:08.827Z,99.90
2024-05-09T19:25:36.621Z,99.90
2024-05-09T19:28:05.428Z,99.90
2024-05-09T19:30:38.990Z,99.90
2024-05-09T19:33:11.890Z,99.90
2024-05-09T19:35:40.645Z,99.90
2024-05-09T19:38:08.338Z,99.90
2024-05-09T19:40:36.196Z,99.90
2024-05-09T19:43:05.663Z,99.90
2024-05-09T19:45:35.615Z,99.90
2024-05-09T19:48:05.421Z,99.90
2024-05-09T19:50:41.321Z,99.90
2024-05-09T19:53:12.731Z,99.90
2024-05-09T19:55:41.153Z,99.90
2024-05-09T19:58:09.761Z,99.90
2024-05-09T20:00:40.052Z,99.90
2024-05-09T20:03:11.254Z,99.90
2024-05-09T20:05:39.628Z,99.90
2024-05-09T20:08:07.838Z,99.90
2024-05-09T20:10:36.562Z,99.90
2024-05-09T20:13:06.595Z,99.90
2024-05-09T20:15:36.860Z,99.90
2024-05-09T20:18:05.325Z,99.90
2024-05-09T20:20:39.209Z,99.90
2024-05-09T20:23:10.925Z,99.90
2024-05-09T20:25:38.449Z,99.90
2024-05-09T20:28:06.679Z,99.90
2024-05-09T20:30:35.771Z,99.90
2024-05-09T20:33:05.703Z,99.90
2024-05-09T20:35:34.867Z,99.90
2024-05-09T20:38:03.831Z,99.90
2024-05-09T20:40:35.812Z,99.90
2024-05-09T20:43:08.032Z,99.90
2024-05-09T20:45:36.121Z,99.90
2024-05-09T20:48:04.083Z,99.90
2024-05-09T20:50:37.874Z,99.90
2024-05-09T20:53:13.428Z,99.90
2024-05-09T20:55:45.765Z,99.90
2024-05-09T20:58:13.919Z,99.90
2024-05-09T21:00:44.509Z,99.90
2024-05-09T21:03:16.306Z,99.90
2024-05-09T21:05:45.025Z,99.90
2024-05-09T21:08:12.692Z,99.90
2024-05-09T21:10:40.220Z,99.90
2024-05-09T21:13:08.136Z,99.90
2024-05-09T21:15:36.290Z,99.90
2024-05-09T21:18:04.835Z,99.90
2024-05-09T21:20:34.598Z,99.90
2024-05-09T21:23:02.848Z,99.90
2024-05-09T21:25:31.321Z,99.90
2024-05-09T21:27:58.988Z,99.90
2024-05-09T21:30:37.066Z,99.90
2024-05-09T21:33:10.605Z,99.90
2024-05-09T21:35:40.245Z,99.90
2024-05-09T21:38:08.064Z,99.90
2024-05-09T21:40:36.921Z,99.90
2024-05-09T21:43:08.964Z,99.90
2024-05-09T21:45:37.406Z,99.90
2024-05-09T21:48:06.333Z,99.90
2024-05-09T21:50:39.989Z,99.90
2024-05-09T21:53:11.022Z,99.90
2024-05-09T21:55:39.207Z,99.90
2024-05-09T21:58:06.652Z,99.90
2024-05-09T22:00:38.238Z,99.90
2024-05-09T22:03:08.322Z,99.90
2024-05-09T22:05:37.479Z,99.90
2024-05-09T22:08:05.650Z,99.90
2024-05-09T22:10:35.566Z,99.90
2024-05-09T22:13:06.141Z,99.90
2024-05-09T22:15:39.854Z,99.90
2024-05-09T22:18:10.005Z,99.90
2024-05-09T22:20:44.864Z,99.90
2024-05-09T22:23:14.490Z,99.90
2024-05-09T22:25:42.441Z,99.90
2024-05-09T22:28:10.106Z,99.90
2024-05-09T22:30:39.810Z,99.90
2024-05-09T22:33:09.872Z,99.90
2024-05-09T22:35:39.029Z,99.90
2024-05-09T22:38:06.634Z,99.90
2024-05-09T22:40:44.846Z,99.90
2024-05-09T22:43:24.378Z,99.90
2024-05-09T22:45:54.752Z,99.90
2024-05-09T22:48:24.109Z,99.90
2024-05-09T22:50:52.166Z,99.90
2024-05-09T22:53:21.952Z,99.90
2024-05-09T22:55:49.557Z,99.90
2024-05-09T22:58:17.366Z,99.90
2024-05-09T23:00:44.950Z,99.90
2024-05-09T23:03:15.721Z,99.90
2024-05-09T23:05:43.655Z,99.90
2024-05-09T23:08:11.076Z,99.90
2024-05-09T23:10:38.708Z,99.90
2024-05-09T23:13:07.725Z,99.90
2024-05-09T23:15:37.499Z,99.90
2024-05-09T23:18:09.361Z,99.90
2024-05-09T23:20:39.435Z,99.90
2024-05-09T23:23:12.296Z,99.90
2024-05-09T23:25:42.841Z,99.90
2024-05-09T23:28:13.684Z,99.90
2024-05-09T23:30:42.001Z,99.90
2024-05-09T23:33:12.228Z,99.90
2024-05-09T23:35:41.934Z,99.90
2024-05-09T23:38:09.481Z,99.90
2024-05-09T23:40:40.018Z,99.90
2024-05-09T23:43:10.473Z,99.90
2024-05-09T23:45:38.696Z,99.90
2024-05-09T23:48:06.908Z,99.90
2024-05-09T23:50:37.548Z,99.90
2024-05-09T23:53:08.677Z,99.90
2024-05-09T23:55:37.522Z,99.90
2024-05-09T23:58:05.772Z,99.90
